sensor_id;sensor_type;location;lat;lon;timestamp;P1;durP1;ratioP1;P2;durP2;ratioP2
12683;SDS011;6406;59.312;18.058;2023-07-31T00:02:14;0.47;;;0.47;;
12683;SDS011;6406;59.312;18.058;2023-07-31T00:04:42;0.00;;;0.00;;
12683;SDS011;6406;59.312;18.058;2023-07-31T00:07:09;0.00;;;0.00;;
12683;SDS011;6406;59.312;18.058;2023-07-31T00:09:39;0.00;;;0.00;;
12683;SDS011;6406;59.312;18.058;2023-07-31T00:12:08;0.87;;;0.63;;
12683;SDS011;6406;59.312;18.058;2023-07-31T00:14:35;0.27;;;0.27;;
12683;SDS011;6406;59.312;18.058;2023-07-31T00:17:02;0.13;;;0.13;;
12683;SDS011;6406;59.312;18.058;2023-07-31T00:19:30;0.67;;;0.67;;
12683;SDS011;6406;59.312;18.058;2023-07-31T00:21:57;0.60;;;0.60;;
12683;SDS011;6406;59.312;18.058;2023-07-31T00:24:24;0.30;;;0.30;;
12683;SDS011;6406;59.312;18.058;2023-07-31T00:26:51;0.00;;;0.00;;
12683;SDS011;6406;59.312;18.058;2023-07-31T00:29:20;0.00;;;0.00;;
12683;SDS011;6406;59.312;18.058;2023-07-31T00:31:47;0.00;;;0.00;;
12683;SDS011;6406;59.312;18.058;2023-07-31T00:34:15;0.37;;;0.37;;
12683;SDS011;6406;59.312;18.058;2023-07-31T00:36:42;0.00;;;0.00;;
12683;SDS011;6406;59.312;18.058;2023-07-31T00:39:09;0.00;;;0.00;;
12683;SDS011;6406;59.312;18.058;2023-07-31T00:41:36;0.00;;;0.00;;
12683;SDS011;6406;59.312;18.058;2023-07-31T00:44:04;0.03;;;0.03;;
12683;SDS011;6406;59.312;18.058;2023-07-31T00:46:32;0.00;;;0.00;;
12683;SDS011;6406;59.312;18.058;2023-07-31T00:49:00;0.27;;;0.27;;
12683;SDS011;6406;59.312;18.058;2023-07-31T00:51:27;0.20;;;0.20;;
12683;SDS011;6406;59.312;18.058;2023-07-31T00:53:54;1.17;;;0.53;;
12683;SDS011;6406;59.312;18.058;2023-07-31T00:56:25;0.00;;;0.00;;
12683;SDS011;6406;59.312;18.058;2023-07-31T00:58:53;0.10;;;0.10;;
12683;SDS011;6406;59.312;18.058;2023-07-31T01:01:20;0.10;;;0.10;;
12683;SDS011;6406;59.312;18.058;2023-07-31T01:03:49;0.00;;;0.00;;
12683;SDS011;6406;59.312;18.058;2023-07-31T01:06:22;0.00;;;0.00;;
12683;SDS011;6406;59.312;18.058;2023-07-31T01:08:57;0.33;;;0.33;;
12683;SDS011;6406;59.312;18.058;2023-07-31T01:11:28;0.00;;;0.00;;
12683;SDS011;6406;59.312;18.058;2023-07-31T01:13:56;0.00;;;0.00;;
12683;SDS011;6406;59.312;18.058;2023-07-31T01:16:24;0.00;;;0.00;;
12683;SDS011;6406;59.312;18.058;2023-07-31T01:18:53;0.00;;;0.00;;
12683;SDS011;6406;59.312;18.058;2023-07-31T01:21:29;0.07;;;0.07;;
12683;SDS011;6406;59.312;18.058;2023-07-31T01:24:04;0.10;;;0.10;;
12683;SDS011;6406;59.312;18.058;2023-07-31T01:26:36;0.17;;;0.17;;
12683;SDS011;6406;59.312;18.058;2023-07-31T01:29:07;0.53;;;0.53;;
12683;SDS011;6406;59.312;18.058;2023-07-31T01:31:36;0.47;;;0.47;;
12683;SDS011;6406;59.312;18.058;2023-07-31T01:34:03;0.07;;;0.07;;
12683;SDS011;6406;59.312;18.058;2023-07-31T01:36:31;0.00;;;0.00;;
12683;SDS011;6406;59.312;18.058;2023-07-31T01:38:58;0.07;;;0.07;;
12683;SDS011;6406;59.312;18.058;2023-07-31T01:41:26;0.00;;;0.00;;
12683;SDS011;6406;59.312;18.058;2023-07-31T01:43:55;0.00;;;0.00;;
12683;SDS011;6406;59.312;18.058;2023-07-31T01:46:22;0.00;;;0.00;;
12683;SDS011;6406;59.312;18.058;2023-07-31T01:48:49;0.00;;;0.00;;
12683;SDS011;6406;59.312;18.058;2023-07-31T01:51:16;0.00;;;0.00;;
12683;SDS011;6406;59.312;18.058;2023-07-31T01:53:44;0.00;;;0.00;;
12683;SDS011;6406;59.312;18.058;2023-07-31T01:56:11;0.10;;;0.10;;
12683;SDS011;6406;59.312;18.058;2023-07-31T01:58:40;0.00;;;0.00;;
12683;SDS011;6406;59.312;18.058;2023-07-31T02:01:08;0.00;;;0.00;;
12683;SDS011;6406;59.312;18.058;2023-07-31T02:03:36;0.10;;;0.10;;
12683;SDS011;6406;59.312;18.058;2023-07-31T02:06:03;0.00;;;0.00;;
12683;SDS011;6406;59.312;18.058;2023-07-31T02:08:30;0.00;;;0.00;;
12683;SDS011;6406;59.312;18.058;2023-07-31T02:10:58;0.00;;;0.00;;
12683;SDS011;6406;59.312;18.058;2023-07-31T02:13:25;0.00;;;0.00;;
12683;SDS011;6406;59.312;18.058;2023-07-31T02:15:52;0.00;;;0.00;;
12683;SDS011;6406;59.312;18.058;2023-07-31T02:18:21;0.00;;;0.00;;
12683;SDS011;6406;59.312;18.058;2023-07-31T02:20:49;0.00;;;0.00;;
12683;SDS011;6406;59.312;18.058;2023-07-31T02:23:16;0.00;;;0.00;;
12683;SDS011;6406;59.312;18.058;2023-07-31T02:25:43;0.00;;;0.00;;
12683;SDS011;6406;59.312;18.058;2023-07-31T02:28:10;0.00;;;0.00;;
12683;SDS011;6406;59.312;18.058;2023-07-31T02:30:38;0.00;;;0.00;;
12683;SDS011;6406;59.312;18.058;2023-07-31T02:33:05;0.13;;;0.13;;
12683;SDS011;6406;59.312;18.058;2023-07-31T02:35:34;0.10;;;0.10;;
12683;SDS011;6406;59.312;18.058;2023-07-31T02:38:01;0.00;;;0.00;;
12683;SDS011;6406;59.312;18.058;2023-07-31T02:40:28;0.00;;;0.00;;
12683;SDS011;6406;59.312;18.058;2023-07-31T02:42:55;0.00;;;0.00;;
12683;SDS011;6406;59.312;18.058;2023-07-31T02:45:23;0.10;;;0.10;;
12683;SDS011;6406;59.312;18.058;2023-07-31T02:47:50;0.00;;;0.00;;
12683;SDS011;6406;59.312;18.058;2023-07-31T02:50:17;0.10;;;0.10;;
12683;SDS011;6406;59.312;18.058;2023-07-31T02:52:46;0.53;;;0.53;;
12683;SDS011;6406;59.312;18.058;2023-07-31T02:55:13;0.00;;;0.00;;
12683;SDS011;6406;59.312;18.058;2023-07-31T02:57:41;0.00;;;0.00;;
12683;SDS011;6406;59.312;18.058;2023-07-31T03:00:08;0.00;;;0.00;;
12683;SDS011;6406;59.312;18.058;2023-07-31T03:02:35;0.77;;;0.77;;
12683;SDS011;6406;59.312;18.058;2023-07-31T03:05:03;0.27;;;0.27;;
12683;SDS011;6406;59.312;18.058;2023-07-31T03:07:30;0.13;;;0.07;;
12683;SDS011;6406;59.312;18.058;2023-07-31T03:09:59;0.00;;;0.00;;
12683;SDS011;6406;59.312;18.058;2023-07-31T03:12:27;0.23;;;0.17;;
12683;SDS011;6406;59.312;18.058;2023-07-31T03:14:54;0.00;;;0.00;;
12683;SDS011;6406;59.312;18.058;2023-07-31T03:17:21;0.63;;;0.63;;
12683;SDS011;6406;59.312;18.058;2023-07-31T03:19:48;0.00;;;0.00;;
12683;SDS011;6406;59.312;18.058;2023-07-31T03:22:16;0.00;;;0.00;;
12683;SDS011;6406;59.312;18.058;2023-07-31T03:24:43;0.10;;;0.10;;
12683;SDS011;6406;59.312;18.058;2023-07-31T03:27:12;0.00;;;0.00;;
12683;SDS011;6406;59.312;18.058;2023-07-31T03:29:39;0.00;;;0.00;;
12683;SDS011;6406;59.312;18.058;2023-07-31T03:32:06;0.00;;;0.00;;
12683;SDS011;6406;59.312;18.058;2023-07-31T03:34:34;0.00;;;0.00;;
12683;SDS011;6406;59.312;18.058;2023-07-31T03:37:01;0.00;;;0.00;;
12683;SDS011;6406;59.312;18.058;2023-07-31T03:39:30;0.50;;;0.40;;
12683;SDS011;6406;59.312;18.058;2023-07-31T03:41:57;0.17;;;0.17;;
12683;SDS011;6406;59.312;18.058;2023-07-31T03:44:27;0.00;;;0.00;;
12683;SDS011;6406;59.312;18.058;2023-07-31T03:46:54;0.00;;;0.00;;
12683;SDS011;6406;59.312;18.058;2023-07-31T03:49:21;0.00;;;0.00;;
12683;SDS011;6406;59.312;18.058;2023-07-31T03:51:49;0.00;;;0.00;;
12683;SDS011;6406;59.312;18.058;2023-07-31T03:54:16;0.30;;;0.30;;
12683;SDS011;6406;59.312;18.058;2023-07-31T03:56:43;0.00;;;0.00;;
12683;SDS011;6406;59.312;18.058;2023-07-31T03:59:11;0.00;;;0.00;;
12683;SDS011;6406;59.312;18.058;2023-07-31T04:01:39;2.43;;;2.23;;
12683;SDS011;6406;59.312;18.058;2023-07-31T04:04:07;0.00;;;0.00;;
12683;SDS011;6406;59.312;18.058;2023-07-31T04:06:34;0.00;;;0.00;;
12683;SDS011;6406;59.312;18.058;2023-07-31T04:09:02;0.23;;;0.23;;
12683;SDS011;6406;59.312;18.058;2023-07-31T04:11:29;0.10;;;0.10;;
12683;SDS011;6406;59.312;18.058;2023-07-31T04:13:56;0.00;;;0.00;;
12683;SDS011;6406;59.312;18.058;2023-07-31T04:16:24;1.70;;;1.50;;
12683;SDS011;6406;59.312;18.058;2023-07-31T04:18:52;0.00;;;0.00;;
12683;SDS011;6406;59.312;18.058;2023-07-31T04:21:19;0.00;;;0.00;;
12683;SDS011;6406;59.312;18.058;2023-07-31T04:23:47;0.00;;;0.00;;
12683;SDS011;6406;59.312;18.058;2023-07-31T04:26:14;0.10;;;0.10;;
12683;SDS011;6406;59.312;18.058;2023-07-31T04:28:41;0.00;;;0.00;;
12683;SDS011;6406;59.312;18.058;2023-07-31T04:31:09;0.20;;;0.20;;
12683;SDS011;6406;59.312;18.058;2023-07-31T04:33:36;0.13;;;0.13;;
12683;SDS011;6406;59.312;18.058;2023-07-31T04:36:05;0.40;;;0.40;;
12683;SDS011;6406;59.312;18.058;2023-07-31T04:38:32;0.00;;;0.00;;
12683;SDS011;6406;59.312;18.058;2023-07-31T04:40:59;0.00;;;0.00;;
12683;SDS011;6406;59.312;18.058;2023-07-31T04:43:27;0.53;;;0.53;;
12683;SDS011;6406;59.312;18.058;2023-07-31T04:45:54;1.87;;;1.73;;
12683;SDS011;6406;59.312;18.058;2023-07-31T04:48:21;1.40;;;1.33;;
12683;SDS011;6406;59.312;18.058;2023-07-31T04:50:48;0.30;;;0.30;;
12683;SDS011;6406;59.312;18.058;2023-07-31T04:53:17;2.03;;;1.83;;
12683;SDS011;6406;59.312;18.058;2023-07-31T04:55:45;0.20;;;0.20;;
12683;SDS011;6406;59.312;18.058;2023-07-31T04:58:12;0.33;;;0.33;;
12683;SDS011;6406;59.312;18.058;2023-07-31T05:00:39;2.03;;;1.80;;
12683;SDS011;6406;59.312;18.058;2023-07-31T05:03:07;2.73;;;2.50;;
12683;SDS011;6406;59.312;18.058;2023-07-31T05:05:35;1.27;;;1.17;;
12683;SDS011;6406;59.312;18.058;2023-07-31T05:08:03;0.00;;;0.00;;
12683;SDS011;6406;59.312;18.058;2023-07-31T05:10:32;1.07;;;1.07;;
12683;SDS011;6406;59.312;18.058;2023-07-31T05:12:59;2.90;;;2.60;;
12683;SDS011;6406;59.312;18.058;2023-07-31T05:15:26;2.17;;;2.03;;
12683;SDS011;6406;59.312;18.058;2023-07-31T05:17:54;1.63;;;1.23;;
12683;SDS011;6406;59.312;18.058;2023-07-31T05:20:21;0.67;;;0.63;;
12683;SDS011;6406;59.312;18.058;2023-07-31T05:22:48;0.33;;;0.33;;
12683;SDS011;6406;59.312;18.058;2023-07-31T05:25:16;0.10;;;0.10;;
12683;SDS011;6406;59.312;18.058;2023-07-31T05:27:45;0.97;;;0.97;;
12683;SDS011;6406;59.312;18.058;2023-07-31T05:30:12;3.07;;;2.67;;
12683;SDS011;6406;59.312;18.058;2023-07-31T05:32:39;0.30;;;0.30;;
12683;SDS011;6406;59.312;18.058;2023-07-31T05:35:06;2.33;;;1.03;;
12683;SDS011;6406;59.312;18.058;2023-07-31T05:37:34;0.00;;;0.00;;
12683;SDS011;6406;59.312;18.058;2023-07-31T05:40:01;2.70;;;1.47;;
12683;SDS011;6406;59.312;18.058;2023-07-31T05:42:28;1.20;;;1.20;;
12683;SDS011;6406;59.312;18.058;2023-07-31T05:44:57;0.93;;;0.93;;
12683;SDS011;6406;59.312;18.058;2023-07-31T05:47:24;1.80;;;1.70;;
12683;SDS011;6406;59.312;18.058;2023-07-31T05:49:52;5.57;;;2.70;;
12683;SDS011;6406;59.312;18.058;2023-07-31T05:52:19;2.37;;;1.67;;
12683;SDS011;6406;59.312;18.058;2023-07-31T05:54:46;3.43;;;2.27;;
12683;SDS011;6406;59.312;18.058;2023-07-31T05:57:14;2.90;;;2.63;;
12683;SDS011;6406;59.312;18.058;2023-07-31T05:59:41;3.50;;;2.67;;
12683;SDS011;6406;59.312;18.058;2023-07-31T06:02:10;4.37;;;3.93;;
12683;SDS011;6406;59.312;18.058;2023-07-31T06:04:37;2.77;;;2.33;;
12683;SDS011;6406;59.312;18.058;2023-07-31T06:07:05;2.00;;;1.90;;
12683;SDS011;6406;59.312;18.058;2023-07-31T06:09:32;2.40;;;2.20;;
12683;SDS011;6406;59.312;18.058;2023-07-31T06:11:59;0.50;;;0.50;;
12683;SDS011;6406;59.312;18.058;2023-07-31T06:14:27;1.67;;;1.53;;
12683;SDS011;6406;59.312;18.058;2023-07-31T06:16:54;2.50;;;2.30;;
12683;SDS011;6406;59.312;18.058;2023-07-31T06:19:23;2.27;;;2.07;;
12683;SDS011;6406;59.312;18.058;2023-07-31T06:21:50;1.80;;;1.40;;
12683;SDS011;6406;59.312;18.058;2023-07-31T06:24:17;4.57;;;2.40;;
12683;SDS011;6406;59.312;18.058;2023-07-31T06:26:45;1.73;;;0.73;;
12683;SDS011;6406;59.312;18.058;2023-07-31T06:29:13;0.50;;;0.47;;
12683;SDS011;6406;59.312;18.058;2023-07-31T06:31:40;1.57;;;1.47;;
12683;SDS011;6406;59.312;18.058;2023-07-31T06:34:08;0.00;;;0.00;;
12683;SDS011;6406;59.312;18.058;2023-07-31T06:36:37;0.10;;;0.10;;
12683;SDS011;6406;59.312;18.058;2023-07-31T06:39:04;0.00;;;0.00;;
12683;SDS011;6406;59.312;18.058;2023-07-31T06:41:32;0.20;;;0.10;;
12683;SDS011;6406;59.312;18.058;2023-07-31T06:43:59;0.40;;;0.40;;
12683;SDS011;6406;59.312;18.058;2023-07-31T06:46:26;0.50;;;0.50;;
12683;SDS011;6406;59.312;18.058;2023-07-31T06:48:54;0.20;;;0.20;;
12683;SDS011;6406;59.312;18.058;2023-07-31T06:51:21;0.10;;;0.10;;
12683;SDS011;6406;59.312;18.058;2023-07-31T06:53:50;0.20;;;0.20;;
12683;SDS011;6406;59.312;18.058;2023-07-31T06:56:17;1.03;;;1.03;;
12683;SDS011;6406;59.312;18.058;2023-07-31T06:58:44;0.87;;;0.87;;
12683;SDS011;6406;59.312;18.058;2023-07-31T07:01:12;0.57;;;0.57;;
12683;SDS011;6406;59.312;18.058;2023-07-31T07:03:39;1.60;;;1.33;;
12683;SDS011;6406;59.312;18.058;2023-07-31T07:06:06;0.70;;;0.67;;
12683;SDS011;6406;59.312;18.058;2023-07-31T07:08:34;10.23;;;0.80;;
12683;SDS011;6406;59.312;18.058;2023-07-31T07:11:02;0.10;;;0.10;;
12683;SDS011;6406;59.312;18.058;2023-07-31T07:13:30;0.00;;;0.00;;
12683;SDS011;6406;59.312;18.058;2023-07-31T07:15:57;0.00;;;0.00;;
12683;SDS011;6406;59.312;18.058;2023-07-31T07:18:25;0.00;;;0.00;;
12683;SDS011;6406;59.312;18.058;2023-07-31T07:20:52;0.00;;;0.00;;
12683;SDS011;6406;59.312;18.058;2023-07-31T07:23:22;0.00;;;0.00;;
12683;SDS011;6406;59.312;18.058;2023-07-31T07:25:50;0.00;;;0.00;;
12683;SDS011;6406;59.312;18.058;2023-07-31T07:28:19;0.00;;;0.00;;
12683;SDS011;6406;59.312;18.058;2023-07-31T07:30:50;0.00;;;0.00;;
12683;SDS011;6406;59.312;18.058;2023-07-31T07:33:18;0.00;;;0.00;;
12683;SDS011;6406;59.312;18.058;2023-07-31T07:35:45;0.00;;;0.00;;
12683;SDS011;6406;59.312;18.058;2023-07-31T07:38:13;0.00;;;0.00;;
12683;SDS011;6406;59.312;18.058;2023-07-31T07:40:41;0.00;;;0.00;;
12683;SDS011;6406;59.312;18.058;2023-07-31T07:43:08;0.00;;;0.00;;
12683;SDS011;6406;59.312;18.058;2023-07-31T07:45:37;0.00;;;0.00;;
12683;SDS011;6406;59.312;18.058;2023-07-31T07:48:04;0.00;;;0.00;;
12683;SDS011;6406;59.312;18.058;2023-07-31T07:50:33;0.00;;;0.00;;
12683;SDS011;6406;59.312;18.058;2023-07-31T07:53:02;0.00;;;0.00;;
12683;SDS011;6406;59.312;18.058;2023-07-31T07:55:29;0.00;;;0.00;;
12683;SDS011;6406;59.312;18.058;2023-07-31T07:57:56;0.00;;;0.00;;
12683;SDS011;6406;59.312;18.058;2023-07-31T08:00:24;0.00;;;0.00;;
12683;SDS011;6406;59.312;18.058;2023-07-31T08:02:52;0.00;;;0.00;;
12683;SDS011;6406;59.312;18.058;2023-07-31T08:05:22;0.00;;;0.00;;
12683;SDS011;6406;59.312;18.058;2023-07-31T08:07:50;0.00;;;0.00;;
12683;SDS011;6406;59.312;18.058;2023-07-31T08:10:17;0.00;;;0.00;;
12683;SDS011;6406;59.312;18.058;2023-07-31T08:12:48;0.00;;;0.00;;
12683;SDS011;6406;59.312;18.058;2023-07-31T08:15:16;0.00;;;0.00;;
12683;SDS011;6406;59.312;18.058;2023-07-31T08:17:43;0.00;;;0.00;;
12683;SDS011;6406;59.312;18.058;2023-07-31T08:20:12;0.00;;;0.00;;
12683;SDS011;6406;59.312;18.058;2023-07-31T08:22:46;0.00;;;0.00;;
12683;SDS011;6406;59.312;18.058;2023-07-31T08:25:13;0.00;;;0.00;;
12683;SDS011;6406;59.312;18.058;2023-07-31T08:27:42;0.00;;;0.00;;
12683;SDS011;6406;59.312;18.058;2023-07-31T08:30:11;0.00;;;0.00;;
12683;SDS011;6406;59.312;18.058;2023-07-31T08:32:38;0.00;;;0.00;;
12683;SDS011;6406;59.312;18.058;2023-07-31T08:35:06;0.00;;;0.00;;
12683;SDS011;6406;59.312;18.058;2023-07-31T08:37:34;0.00;;;0.00;;
12683;SDS011;6406;59.312;18.058;2023-07-31T08:40:02;0.00;;;0.00;;
12683;SDS011;6406;59.312;18.058;2023-07-31T08:42:29;0.00;;;0.00;;
12683;SDS011;6406;59.312;18.058;2023-07-31T08:44:57;0.00;;;0.00;;
12683;SDS011;6406;59.312;18.058;2023-07-31T08:47:26;0.00;;;0.00;;
12683;SDS011;6406;59.312;18.058;2023-07-31T08:49:54;0.00;;;0.00;;
12683;SDS011;6406;59.312;18.058;2023-07-31T08:52:22;0.00;;;0.00;;
12683;SDS011;6406;59.312;18.058;2023-07-31T08:54:51;0.00;;;0.00;;
12683;SDS011;6406;59.312;18.058;2023-07-31T08:57:18;0.00;;;0.00;;
12683;SDS011;6406;59.312;18.058;2023-07-31T08:59:47;0.00;;;0.00;;
12683;SDS011;6406;59.312;18.058;2023-07-31T09:02:16;0.00;;;0.00;;
12683;SDS011;6406;59.312;18.058;2023-07-31T09:04:45;0.00;;;0.00;;
12683;SDS011;6406;59.312;18.058;2023-07-31T09:07:13;0.00;;;0.00;;
12683;SDS011;6406;59.312;18.058;2023-07-31T09:09:42;0.00;;;0.00;;
12683;SDS011;6406;59.312;18.058;2023-07-31T09:12:12;0.00;;;0.00;;
12683;SDS011;6406;59.312;18.058;2023-07-31T09:14:39;0.00;;;0.00;;
12683;SDS011;6406;59.312;18.058;2023-07-31T09:17:07;0.00;;;0.00;;
12683;SDS011;6406;59.312;18.058;2023-07-31T09:19:35;0.00;;;0.00;;
12683;SDS011;6406;59.312;18.058;2023-07-31T09:22:03;0.00;;;0.00;;
12683;SDS011;6406;59.312;18.058;2023-07-31T09:24:31;0.00;;;0.00;;
12683;SDS011;6406;59.312;18.058;2023-07-31T09:26:59;0.00;;;0.00;;
12683;SDS011;6406;59.312;18.058;2023-07-31T09:29:28;0.00;;;0.00;;
12683;SDS011;6406;59.312;18.058;2023-07-31T09:31:56;0.10;;;0.10;;
12683;SDS011;6406;59.312;18.058;2023-07-31T09:34:28;0.03;;;0.03;;
12683;SDS011;6406;59.312;18.058;2023-07-31T09:36:57;0.03;;;0.03;;
12683;SDS011;6406;59.312;18.058;2023-07-31T09:39:25;0.10;;;0.10;;
12683;SDS011;6406;59.312;18.058;2023-07-31T09:41:53;0.00;;;0.00;;
12683;SDS011;6406;59.312;18.058;2023-07-31T09:44:21;0.00;;;0.00;;
12683;SDS011;6406;59.312;18.058;2023-07-31T09:46:50;0.00;;;0.00;;
12683;SDS011;6406;59.312;18.058;2023-07-31T09:49:17;0.00;;;0.00;;
12683;SDS011;6406;59.312;18.058;2023-07-31T09:51:46;0.00;;;0.00;;
12683;SDS011;6406;59.312;18.058;2023-07-31T09:54:15;0.10;;;0.10;;
12683;SDS011;6406;59.312;18.058;2023-07-31T09:56:46;0.00;;;0.00;;
12683;SDS011;6406;59.312;18.058;2023-07-31T09:59:14;0.00;;;0.00;;
12683;SDS011;6406;59.312;18.058;2023-07-31T10:01:42;0.10;;;0.10;;
12683;SDS011;6406;59.312;18.058;2023-07-31T10:04:13;0.00;;;0.00;;
12683;SDS011;6406;59.312;18.058;2023-07-31T10:06:42;0.00;;;0.00;;
12683;SDS011;6406;59.312;18.058;2023-07-31T10:09:11;0.00;;;0.00;;
12683;SDS011;6406;59.312;18.058;2023-07-31T10:11:41;0.00;;;0.00;;
12683;SDS011;6406;59.312;18.058;2023-07-31T10:14:10;0.00;;;0.00;;
12683;SDS011;6406;59.312;18.058;2023-07-31T10:16:38;0.00;;;0.00;;
12683;SDS011;6406;59.312;18.058;2023-07-31T10:19:06;0.00;;;0.00;;
12683;SDS011;6406;59.312;18.058;2023-07-31T10:21:35;0.00;;;0.00;;
12683;SDS011;6406;59.312;18.058;2023-07-31T10:24:03;0.00;;;0.00;;
12683;SDS011;6406;59.312;18.058;2023-07-31T10:26:31;0.00;;;0.00;;
12683;SDS011;6406;59.312;18.058;2023-07-31T10:28:59;0.00;;;0.00;;
12683;SDS011;6406;59.312;18.058;2023-07-31T10:31:26;0.00;;;0.00;;
12683;SDS011;6406;59.312;18.058;2023-07-31T10:33:54;0.00;;;0.00;;
12683;SDS011;6406;59.312;18.058;2023-07-31T10:36:23;0.10;;;0.10;;
12683;SDS011;6406;59.312;18.058;2023-07-31T10:38:52;0.03;;;0.03;;
12683;SDS011;6406;59.312;18.058;2023-07-31T10:41:19;0.00;;;0.00;;
12683;SDS011;6406;59.312;18.058;2023-07-31T10:43:46;0.10;;;0.10;;
12683;SDS011;6406;59.312;18.058;2023-07-31T10:46:14;0.00;;;0.00;;
12683;SDS011;6406;59.312;18.058;2023-07-31T10:48:41;0.00;;;0.00;;
12683;SDS011;6406;59.312;18.058;2023-07-31T10:51:10;0.37;;;0.27;;
12683;SDS011;6406;59.312;18.058;2023-07-31T10:53:37;0.00;;;0.00;;
12683;SDS011;6406;59.312;18.058;2023-07-31T10:56:07;0.10;;;0.10;;
12683;SDS011;6406;59.312;18.058;2023-07-31T10:58:35;0.17;;;0.17;;
12683;SDS011;6406;59.312;18.058;2023-07-31T11:01:03;0.10;;;0.10;;
12683;SDS011;6406;59.312;18.058;2023-07-31T11:03:40;0.63;;;0.63;;
12683;SDS011;6406;59.312;18.058;2023-07-31T11:06:08;0.00;;;0.00;;
12683;SDS011;6406;59.312;18.058;2023-07-31T11:08:41;0.20;;;0.20;;
12683;SDS011;6406;59.312;18.058;2023-07-31T11:11:11;0.00;;;0.00;;
12683;SDS011;6406;59.312;18.058;2023-07-31T11:13:42;0.33;;;0.33;;
12683;SDS011;6406;59.312;18.058;2023-07-31T11:16:10;0.00;;;0.00;;
12683;SDS011;6406;59.312;18.058;2023-07-31T11:18:38;0.03;;;0.03;;
12683;SDS011;6406;59.312;18.058;2023-07-31T11:21:06;0.00;;;0.00;;
12683;SDS011;6406;59.312;18.058;2023-07-31T11:23:36;0.13;;;0.13;;
12683;SDS011;6406;59.312;18.058;2023-07-31T11:26:04;0.60;;;0.60;;
12683;SDS011;6406;59.312;18.058;2023-07-31T11:28:33;0.00;;;0.00;;
12683;SDS011;6406;59.312;18.058;2023-07-31T11:31:04;0.00;;;0.00;;
12683;SDS011;6406;59.312;18.058;2023-07-31T11:33:40;0.20;;;0.20;;
12683;SDS011;6406;59.312;18.058;2023-07-31T11:36:13;0.10;;;0.10;;
12683;SDS011;6406;59.312;18.058;2023-07-31T11:38:41;0.10;;;0.10;;
12683;SDS011;6406;59.312;18.058;2023-07-31T11:41:08;3.03;;;2.93;;
12683;SDS011;6406;59.312;18.058;2023-07-31T11:43:37;0.10;;;0.10;;
12683;SDS011;6406;59.312;18.058;2023-07-31T11:46:04;0.00;;;0.00;;
12683;SDS011;6406;59.312;18.058;2023-07-31T11:48:32;0.00;;;0.00;;
12683;SDS011;6406;59.312;18.058;2023-07-31T11:51:01;0.30;;;0.30;;
12683;SDS011;6406;59.312;18.058;2023-07-31T11:53:29;0.00;;;0.00;;
12683;SDS011;6406;59.312;18.058;2023-07-31T11:55:58;0.00;;;0.00;;
12683;SDS011;6406;59.312;18.058;2023-07-31T11:58:26;0.10;;;0.10;;
12683;SDS011;6406;59.312;18.058;2023-07-31T12:00:55;0.00;;;0.00;;
12683;SDS011;6406;59.312;18.058;2023-07-31T12:03:23;0.20;;;0.20;;
12683;SDS011;6406;59.312;18.058;2023-07-31T12:05:52;0.10;;;0.10;;
12683;SDS011;6406;59.312;18.058;2023-07-31T12:08:20;0.70;;;0.67;;
12683;SDS011;6406;59.312;18.058;2023-07-31T12:10:49;0.20;;;0.20;;
12683;SDS011;6406;59.312;18.058;2023-07-31T12:13:19;0.00;;;0.00;;
12683;SDS011;6406;59.312;18.058;2023-07-31T12:15:47;0.10;;;0.10;;
12683;SDS011;6406;59.312;18.058;2023-07-31T12:18:18;0.53;;;0.53;;
12683;SDS011;6406;59.312;18.058;2023-07-31T12:20:47;0.00;;;0.00;;
12683;SDS011;6406;59.312;18.058;2023-07-31T12:23:14;0.00;;;0.00;;
12683;SDS011;6406;59.312;18.058;2023-07-31T12:25:42;0.17;;;0.17;;
12683;SDS011;6406;59.312;18.058;2023-07-31T12:28:09;0.00;;;0.00;;
12683;SDS011;6406;59.312;18.058;2023-07-31T12:30:40;0.03;;;0.03;;
12683;SDS011;6406;59.312;18.058;2023-07-31T12:33:12;0.00;;;0.00;;
12683;SDS011;6406;59.312;18.058;2023-07-31T12:35:45;0.20;;;0.20;;
12683;SDS011;6406;59.312;18.058;2023-07-31T12:38:13;0.27;;;0.27;;
12683;SDS011;6406;59.312;18.058;2023-07-31T12:40:41;0.70;;;0.37;;
12683;SDS011;6406;59.312;18.058;2023-07-31T12:43:08;0.20;;;0.20;;
12683;SDS011;6406;59.312;18.058;2023-07-31T12:45:39;0.30;;;0.30;;
12683;SDS011;6406;59.312;18.058;2023-07-31T12:48:10;1.37;;;1.27;;
12683;SDS011;6406;59.312;18.058;2023-07-31T12:50:37;0.00;;;0.00;;
12683;SDS011;6406;59.312;18.058;2023-07-31T12:53:06;0.23;;;0.23;;
12683;SDS011;6406;59.312;18.058;2023-07-31T12:55:33;0.13;;;0.13;;
12683;SDS011;6406;59.312;18.058;2023-07-31T12:58:02;0.00;;;0.00;;
12683;SDS011;6406;59.312;18.058;2023-07-31T13:00:29;0.10;;;0.10;;
12683;SDS011;6406;59.312;18.058;2023-07-31T13:02:57;0.87;;;0.70;;
12683;SDS011;6406;59.312;18.058;2023-07-31T13:05:25;1.43;;;1.33;;
12683;SDS011;6406;59.312;18.058;2023-07-31T13:07:52;0.40;;;0.40;;
12683;SDS011;6406;59.312;18.058;2023-07-31T13:10:23;1.13;;;1.13;;
12683;SDS011;6406;59.312;18.058;2023-07-31T13:12:51;0.10;;;0.10;;
12683;SDS011;6406;59.312;18.058;2023-07-31T13:15:19;0.40;;;0.40;;
12683;SDS011;6406;59.312;18.058;2023-07-31T13:17:46;0.00;;;0.00;;
12683;SDS011;6406;59.312;18.058;2023-07-31T13:20:14;0.17;;;0.17;;
12683;SDS011;6406;59.312;18.058;2023-07-31T13:22:41;0.00;;;0.00;;
12683;SDS011;6406;59.312;18.058;2023-07-31T13:25:08;0.07;;;0.07;;
12683;SDS011;6406;59.312;18.058;2023-07-31T13:27:37;0.10;;;0.10;;
12683;SDS011;6406;59.312;18.058;2023-07-31T13:30:05;0.43;;;0.20;;
12683;SDS011;6406;59.312;18.058;2023-07-31T13:32:33;0.10;;;0.10;;
12683;SDS011;6406;59.312;18.058;2023-07-31T13:35:03;0.00;;;0.00;;
12683;SDS011;6406;59.312;18.058;2023-07-31T13:37:31;0.00;;;0.00;;
12683;SDS011;6406;59.312;18.058;2023-07-31T13:39:58;0.07;;;0.07;;
12683;SDS011;6406;59.312;18.058;2023-07-31T13:42:25;0.30;;;0.30;;
12683;SDS011;6406;59.312;18.058;2023-07-31T13:44:55;0.40;;;0.23;;
12683;SDS011;6406;59.312;18.058;2023-07-31T13:47:23;0.00;;;0.00;;
12683;SDS011;6406;59.312;18.058;2023-07-31T13:49:50;0.00;;;0.00;;
12683;SDS011;6406;59.312;18.058;2023-07-31T13:52:17;0.00;;;0.00;;
12683;SDS011;6406;59.312;18.058;2023-07-31T13:54:45;0.00;;;0.00;;
12683;SDS011;6406;59.312;18.058;2023-07-31T13:57:12;0.00;;;0.00;;
12683;SDS011;6406;59.312;18.058;2023-07-31T13:59:39;0.00;;;0.00;;
12683;SDS011;6406;59.312;18.058;2023-07-31T14:02:08;0.00;;;0.00;;
12683;SDS011;6406;59.312;18.058;2023-07-31T14:04:36;0.87;;;0.70;;
12683;SDS011;6406;59.312;18.058;2023-07-31T14:07:04;0.00;;;0.00;;
12683;SDS011;6406;59.312;18.058;2023-07-31T14:09:31;0.10;;;0.10;;
12683;SDS011;6406;59.312;18.058;2023-07-31T14:11:59;0.47;;;0.47;;
12683;SDS011;6406;59.312;18.058;2023-07-31T14:14:27;0.80;;;0.80;;
12683;SDS011;6406;59.312;18.058;2023-07-31T14:16:54;0.00;;;0.00;;
12683;SDS011;6406;59.312;18.058;2023-07-31T14:19:23;0.10;;;0.10;;
12683;SDS011;6406;59.312;18.058;2023-07-31T14:21:51;0.00;;;0.00;;
12683;SDS011;6406;59.312;18.058;2023-07-31T14:24:18;0.00;;;0.00;;
12683;SDS011;6406;59.312;18.058;2023-07-31T14:26:46;0.00;;;0.00;;
12683;SDS011;6406;59.312;18.058;2023-07-31T14:29:13;0.00;;;0.00;;
12683;SDS011;6406;59.312;18.058;2023-07-31T14:31:40;0.47;;;0.47;;
12683;SDS011;6406;59.312;18.058;2023-07-31T14:34:08;0.00;;;0.00;;
12683;SDS011;6406;59.312;18.058;2023-07-31T14:36:37;0.80;;;0.80;;
12683;SDS011;6406;59.312;18.058;2023-07-31T14:39:04;1.40;;;0.87;;
12683;SDS011;6406;59.312;18.058;2023-07-31T14:41:31;0.10;;;0.10;;
12683;SDS011;6406;59.312;18.058;2023-07-31T14:43:59;0.67;;;0.67;;
12683;SDS011;6406;59.312;18.058;2023-07-31T14:46:27;0.40;;;0.40;;
12683;SDS011;6406;59.312;18.058;2023-07-31T14:48:54;0.73;;;0.73;;
12683;SDS011;6406;59.312;18.058;2023-07-31T14:51:21;0.47;;;0.47;;
12683;SDS011;6406;59.312;18.058;2023-07-31T14:53:50;0.00;;;0.00;;